createdAt,value
2017-12-09T00:00:50.537Z,99089.26
2017-12-09T00:03:17.014Z,99085.08
2017-12-09T00:05:43.437Z,99091.27
2017-12-09T00:08:09.825Z,99078.19
2017-12-09T00:10:36.208Z,99084.38
2017-12-09T00:13:02.530Z,99071.03
2017-12-09T00:15:28.904Z,99067.22
2017-12-09T00:17:55.280Z,99069.63
2017-12-09T00:20:22.456Z,99061.09
2017-12-09T00:22:48.901Z,99067.81
2017-12-09T00:25:15.218Z,99066.03
2017-12-09T00:27:41.544Z,99064.88
2017-12-09T00:30:07.899Z,99059.45
2017-12-09T00:32:34.196Z,99061.19
2017-12-09T00:35:00.520Z,99067.69
2017-12-09T00:37:26.872Z,99070.13
2017-12-09T00:39:53.283Z,99069.73
2017-12-09T00:42:19.599Z,99072.66
2017-12-09T00:44:45.959Z,99066.70
2017-12-09T00:47:12.295Z,99061.19
2017-12-09T00:49:38.608Z,99054.88
2017-12-09T00:52:04.951Z,99056.83
2017-12-09T00:54:31.275Z,99050.79
2017-12-09T00:56:57.601Z,99047.29
2017-12-09T00:59:23.927Z,99049.16
2017-12-09T01:01:50.207Z,99051.50
2017-12-09T01:04:16.488Z,99049.77
2017-12-09T01:06:42.813Z,99053.19
2017-12-09T01:09:09.098Z,99052.69
2017-12-09T01:11:35.401Z,99048.81
2017-12-09T01:14:01.716Z,99042.47
2017-12-09T01:16:46.884Z,99038.05
2017-12-09T01:19:13.161Z,99046.08
2017-12-09T01:21:39.450Z,99052.77
2017-12-09T01:24:05.776Z,99057.27
2017-12-09T01:26:32.196Z,99065.70
2017-12-09T01:28:58.483Z,99054.81
2017-12-09T01:31:24.908Z,99063.74
2017-12-09T01:33:51.257Z,99051.78
2017-12-09T01:36:17.586Z,99067.58
2017-12-09T01:38:44.686Z,99063.05
2017-12-09T01:41:10.966Z,99062.72
2017-12-09T01:43:37.303Z,99066.05
2017-12-09T01:46:03.669Z,99067.45
2017-12-09T01:48:30.019Z,99070.51
2017-12-09T01:50:56.451Z,99065.80
2017-12-09T01:53:22.852Z,99072.88
2017-12-09T01:55:49.263Z,99072.23
2017-12-09T01:58:16.338Z,99074.43
2017-12-09T02:00:42.697Z,99068.35
2017-12-09T02:03:08.997Z,99070.00
2017-12-09T02:05:35.256Z,99067.22
2017-12-09T02:08:01.558Z,99061.95
2017-12-09T02:10:27.906Z,99058.61
2017-12-09T02:12:54.182Z,99052.12
2017-12-09T02:15:20.477Z,99056.36
2017-12-09T02:17:46.804Z,99048.37
2017-12-09T02:20:13.144Z,99051.50
2017-12-09T02:22:39.502Z,99054.83
2017-12-09T02:25:05.824Z,99051.69
2017-12-09T02:27:32.224Z,99056.99
2017-12-09T02:29:58.482Z,99047.31
2017-12-09T02:32:24.825Z,99039.78
2017-12-09T02:34:51.154Z,99046.09
2017-12-09T02:37:17.455Z,99042.68
2017-12-09T02:39:43.716Z,99044.10
2017-12-09T02:42:10.042Z,99041.24
2017-12-09T02:44:36.336Z,99042.99
2017-12-09T02:47:02.644Z,99042.21
2017-12-09T02:49:29.744Z,99042.98
2017-12-09T02:51:56.057Z,99046.48
2017-12-09T02:54:22.360Z,99048.44
2017-12-09T02:56:48.657Z,99042.52
2017-12-09T02:59:14.955Z,99044.80
2017-12-09T03:01:41.297Z,99049.00
2017-12-09T03:04:07.611Z,99055.21
2017-12-09T03:06:34.989Z,99051.33
2017-12-09T03:09:01.295Z,99042.43
2017-12-09T03:11:27.625Z,99044.53
2017-12-09T03:13:54.027Z,99043.58
2017-12-09T03:16:20.349Z,99048.22
2017-12-09T03:18:47.557Z,99044.67
2017-12-09T03:21:13.841Z,99045.05
2017-12-09T03:23:40.885Z,99038.23
2017-12-09T03:26:07.893Z,99043.30
2017-12-09T03:28:34.200Z,99042.44
2017-12-09T03:31:00.917Z,99041.64
2017-12-09T03:33:27.198Z,99044.63
2017-12-09T03:35:53.542Z,99043.48
2017-12-09T03:38:19.900Z,99040.22
2017-12-09T03:40:46.971Z,99035.76
2017-12-09T03:43:13.274Z,99028.56
2017-12-09T03:45:40.302Z,99038.98
2017-12-09T03:48:06.605Z,99036.28
2017-12-09T03:50:32.940Z,99032.42
2017-12-09T03:52:59.254Z,99031.36
2017-12-09T03:55:25.595Z,99030.27
2017-12-09T03:57:51.977Z,99029.08
2017-12-09T04:00:19.045Z,99020.48
2017-12-09T04:02:45.323Z,99018.64
2017-12-09T04:05:11.625Z,99012.24
2017-12-09T04:07:37.941Z,99009.30
2017-12-09T04:10:04.305Z,99018.86
2017-12-09T04:12:30.617Z,99003.21
2017-12-09T04:14:56.949Z,99003.78
2017-12-09T04:17:23.293Z,99006.41
2017-12-09T04:19:49.617Z,99008.41
2017-12-09T04:22:15.929Z,99005.81
2017-12-09T04:24:42.281Z,99009.14
2017-12-09T04:27:08.611Z,99001.66
2017-12-09T04:29:34.942Z,98998.33
2017-12-09T04:32:01.290Z,98993.88
2017-12-09T04:34:27.740Z,99016.01
2017-12-09T04:36:54.032Z,99012.24
2017-12-09T04:39:20.337Z,99009.55
2017-12-09T04:41:46.664Z,99008.33
2017-12-09T04:44:13.684Z,99006.75
2017-12-09T04:46:40.016Z,99013.28
2017-12-09T04:49:07.042Z,99014.09
2017-12-09T04:51:33.380Z,98996.93
2017-12-09T04:54:00.828Z,99008.61
2017-12-09T04:56:27.142Z,98990.37
2017-12-09T04:58:53.470Z,98985.48
2017-12-09T05:01:19.857Z,98998.61
2017-12-09T05:03:46.923Z,98994.56
2017-12-09T05:06:13.314Z,98989.56
2017-12-09T05:08:39.667Z,98987.72
2017-12-09T05:11:05.955Z,98987.82
2017-12-09T05:13:32.293Z,98982.13
2017-12-09T05:15:58.617Z,98992.11
2017-12-09T05:18:24.889Z,98987.04
2017-12-09T05:20:51.213Z,98986.04
2017-12-09T05:23:17.469Z,98989.64
2017-12-09T05:25:44.678Z,98994.45
2017-12-09T05:28:11.022Z,99000.31
2017-12-09T05:30:37.338Z,98987.17
2017-12-09T05:33:03.722Z,98996.97
2017-12-09T05:35:30.089Z,98992.58
2017-12-09T05:37:56.384Z,98992.75
2017-12-09T05:40:22.708Z,98996.41
2017-12-09T05:42:49.744Z,98999.86
2017-12-09T05:45:16.881Z,98991.80
2017-12-09T05:47:43.984Z,99004.08
2017-12-09T05:50:10.350Z,98996.02
2017-12-09T05:52:36.663Z,99005.02
2017-12-09T05:55:02.948Z,99000.05
2017-12-09T05:57:29.977Z,99005.59
2017-12-09T05:59:56.270Z,98997.73
2017-12-09T06:02:22.768Z,99000.01
2017-12-09T06:04:49.137Z,98993.05
2017-12-09T06:07:15.424Z,98999.89
2017-12-09T06:09:42.449Z,98993.83
2017-12-09T06:12:09.481Z,99002.27
2017-12-09T06:14:35.762Z,99016.64
2017-12-09T06:17:02.100Z,98999.50
2017-12-09T06:19:28.447Z,99015.14
2017-12-09T06:21:54.805Z,99014.62
2017-12-09T06:24:21.131Z,99014.02
2017-12-09T06:26:47.507Z,99020.23
2017-12-09T06:29:14.534Z,99011.72
2017-12-09T06:31:40.868Z,99010.05
2017-12-09T06:34:07.210Z,99006.80
2017-12-09T06:36:34.258Z,99010.42
2017-12-09T06:39:01.454Z,99001.36
2017-12-09T06:41:27.812Z,98992.03
2017-12-09T06:43:54.114Z,98987.33
2017-12-09T06:46:20.488Z,99000.78
2017-12-09T06:48:46.801Z,99006.92
2017-12-09T06:51:13.091Z,98990.81
2017-12-09T06:53:39.384Z,98997.64
2017-12-09T06:56:05.661Z,99010.14
2017-12-09T06:58:32.172Z,99015.53
2017-12-09T07:00:58.655Z,99021.91
2017-12-09T07:03:25.059Z,99013.70
2017-12-09T07:05:51.354Z,99017.84
2017-12-09T07:08:18.403Z,99017.51
2017-12-09T07:10:45.520Z,99015.63
2017-12-09T07:13:11.917Z,99018.92
2017-12-09T07:15:38.285Z,99028.41
2017-12-09T07:18:04.634Z,99026.09
2017-12-09T07:20:31.047Z,99029.38
2017-12-09T07:22:57.401Z,99032.77
2017-12-09T07:25:23.703Z,99035.14
2017-12-09T07:27:50.038Z,99023.14
2017-12-09T07:30:16.370Z,99021.18
2017-12-09T07:32:42.759Z,99025.13
2017-12-09T07:35:09.133Z,99010.18
2017-12-09T07:37:35.507Z,99030.88
2017-12-09T07:40:01.826Z,99028.72
2017-12-09T07:42:28.222Z,99034.56
2017-12-09T07:44:54.600Z,99039.41
2017-12-09T07:47:21.695Z,99029.45
2017-12-09T07:49:48.055Z,99036.05
2017-12-09T07:52:14.473Z,99036.00
2017-12-09T07:54:40.801Z,99032.81
2017-12-09T07:57:07.203Z,99035.37
2017-12-09T07:59:33.603Z,99056.23
2017-12-09T08:01:59.971Z,99038.27
2017-12-09T08:04:26.261Z,99039.19
2017-12-09T08:06:52.592Z,99026.62
2017-12-09T08:09:18.909Z,99050.47
2017-12-09T08:11:45.261Z,99050.92
2017-12-09T08:14:11.664Z,99048.94
2017-12-09T08:16:38.025Z,99054.49
2017-12-09T08:19:05.067Z,99057.88
2017-12-09T08:21:31.510Z,99060.76
2017-12-09T08:23:58.827Z,99059.05
2017-12-09T08:26:25.902Z,99061.19
2017-12-09T08:28:52.199Z,99074.85
2017-12-09T08:31:18.552Z,99058.73
2017-12-09T08:33:44.891Z,99058.25
2017-12-09T08:36:11.257Z,99060.00
2017-12-09T08:38:37.576Z,99064.39
2017-12-09T08:41:03.956Z,99064.91
2017-12-09T08:43:30.536Z,99064.81
2017-12-09T08:45:56.896Z,99058.50
2017-12-09T08:48:23.253Z,99062.86
2017-12-09T08:50:49.873Z,99063.69
2017-12-09T08:53:16.236Z,99063.04
2017-12-09T08:55:42.581Z,99055.27
2017-12-09T08:58:09.625Z,99069.04
2017-12-09T09:00:35.973Z,99066.65
2017-12-09T09:03:02.411Z,99066.06
2017-12-09T09:05:28.802Z,99066.36
2017-12-09T09:07:55.175Z,99078.27
2017-12-09T09:10:21.571Z,99073.83
2017-12-09T09:12:47.922Z,99060.37
2017-12-09T09:15:14.335Z,99085.45
2017-12-09T09:17:40.873Z,99088.86
2017-12-09T09:20:07.407Z,99071.73
2017-12-09T09:22:33.769Z,99080.56
2017-12-09T09:25:00.142Z,99083.17
2017-12-09T09:27:26.544Z,99074.48
2017-12-09T09:29:52.844Z,99086.97
2017-12-09T09:32:19.211Z,99075.31
2017-12-09T09:34:45.610Z,99064.43
2017-12-09T09:37:11.896Z,99063.05
2017-12-09T09:39:38.538Z,99048.21
2017-12-09T09:42:04.866Z,99018.84
2017-12-09T09:44:31.266Z,99048.04
2017-12-09T09:46:57.649Z,99059.28
2017-12-09T09:49:23.980Z,99051.64
2017-12-09T09:51:50.462Z,99047.08
2017-12-09T09:54:16.789Z,99039.77
2017-12-09T09:56:43.170Z,99032.32
2017-12-09T09:59:09.466Z,99034.83
2017-12-09T10:01:35.867Z,99036.66
2017-12-09T10:04:02.426Z,99032.77
2017-12-09T10:06:29.711Z,99024.96
2017-12-09T10:08:56.071Z,99013.47
2017-12-09T10:11:22.553Z,99023.11
2017-12-09T10:13:49.646Z,99017.23
2017-12-09T10:16:15.977Z,99022.56
2017-12-09T10:18:42.299Z,99015.63
2017-12-09T10:21:08.649Z,99018.43
2017-12-09T10:23:34.981Z,99018.05
2017-12-09T10:26:01.365Z,99006.16
2017-12-09T10:28:28.487Z,98999.45
2017-12-09T10:30:55.032Z,98997.53
2017-12-09T10:33:21.437Z,98994.16
2017-12-09T10:35:47.790Z,98992.23
2017-12-09T10:38:14.135Z,98978.34
2017-12-09T10:40:41.330Z,98999.59
2017-12-09T10:43:07.832Z,98998.59
2017-12-09T10:45:34.273Z,98989.20
2017-12-09T10:48:00.734Z,98985.34
2017-12-09T10:50:27.177Z,98994.02
2017-12-09T10:52:53.634Z,99001.33
2017-12-09T10:55:20.010Z,98997.53
2017-12-09T10:57:47.111Z,98976.23
2017-12-09T11:00:13.447Z,98992.02
2017-12-09T11:02:39.887Z,98982.25
2017-12-09T11:05:07.327Z,98979.01
2017-12-09T11:07:34.511Z,98969.28
2017-12-09T11:10:00.915Z,98980.45
2017-12-09T11:12:27.370Z,98974.38
2017-12-09T11:14:53.722Z,98975.39
2017-12-09T11:17:20.099Z,98988.70
2017-12-09T11:19:48.681Z,98989.63
2017-12-09T11:22:15.242Z,98991.55
2017-12-09T11:24:41.687Z,98969.06
2017-12-09T11:27:08.123Z,98984.64
2017-12-09T11:29:34.639Z,98984.48
2017-12-09T11:32:01.053Z,98990.18
2017-12-09T11:34:27.412Z,98981.06
2017-12-09T11:36:53.816Z,98992.03
2017-12-09T11:39:20.198Z,98992.45
2017-12-09T11:41:46.600Z,98988.40
2017-12-09T11:44:12.975Z,98994.73
2017-12-09T11:46:39.468Z,99000.31
2017-12-09T11:49:05.919Z,98999.30
2017-12-09T11:51:32.617Z,98999.58
2017-12-09T11:53:58.986Z,98991.28
2017-12-09T11:56:25.384Z,99002.76
2017-12-09T11:58:51.751Z,99001.07
2017-12-09T12:01:18.143Z,98996.06
2017-12-09T12:03:44.650Z,98987.22
2017-12-09T12:06:11.759Z,99005.05
2017-12-09T12:08:38.901Z,98986.80
2017-12-09T12:11:05.233Z,98989.28
2017-12-09T12:13:31.775Z,98991.28
2017-12-09T12:15:58.084Z,99003.63
2017-12-09T12:18:24.435Z,98998.44
2017-12-09T12:20:50.874Z,99002.45
2017-12-09T12:23:17.230Z,98996.76
2017-12-09T12:25:44.358Z,98991.96
2017-12-09T12:28:10.852Z,98997.69
2017-12-09T12:30:37.290Z,98993.66
2017-12-09T12:33:03.652Z,99001.44
2017-12-09T12:35:30.016Z,99001.17
2017-12-09T12:37:57.153Z,98994.86
2017-12-09T12:40:23.571Z,98991.52
2017-12-09T12:42:49.958Z,98988.17
2017-12-09T12:45:16.334Z,98979.16
2017-12-09T12:47:42.664Z,98972.36
2017-12-09T12:50:09.020Z,98982.55
2017-12-09T12:52:35.352Z,98996.12
2017-12-09T12:55:01.692Z,98987.41
2017-12-09T12:57:28.021Z,98980.83
2017-12-09T12:59:54.444Z,98973.13
2017-12-09T13:02:20.865Z,99009.53
2017-12-09T13:04:48.017Z,98997.91
2017-12-09T13:07:14.309Z,98987.16
2017-12-09T13:09:40.723Z,98990.43
2017-12-09T13:12:07.057Z,98990.06
2017-12-09T13:14:33.431Z,99002.03
2017-12-09T13:16:59.769Z,98966.38
2017-12-09T13:19:26.155Z,98990.43
2017-12-09T13:21:52.509Z,98996.98
2017-12-09T13:24:18.775Z,99004.47
2017-12-09T13:26:45.147Z,99005.72
2017-12-09T13:29:11.534Z,99002.80
2017-12-09T13:31:37.893Z,99026.41
2017-12-09T13:34:04.236Z,99005.83
2017-12-09T13:36:31.302Z,99001.44
2017-12-09T13:38:57.606Z,98989.92
2017-12-09T13:41:24.692Z,98996.72
2017-12-09T13:43:50.988Z,99001.01
2017-12-09T13:46:18.112Z,99015.16
2017-12-09T13:48:44.438Z,99003.13
2017-12-09T13:51:10.728Z,99023.16
2017-12-09T13:53:37.107Z,99016.27
2017-12-09T13:56:03.733Z,99026.46
2017-12-09T13:58:30.004Z,99018.30
2017-12-09T14:00:59.133Z,99028.84
2017-12-09T14:03:25.543Z,99065.76
2017-12-09T14:05:51.859Z,99036.52
2017-12-09T14:08:18.921Z,99025.14
2017-12-09T14:10:45.291Z,99041.57
2017-12-09T14:13:11.712Z,99037.80
2017-12-09T14:15:38.074Z,99036.01
2017-12-09T14:18:04.369Z,99034.30
2017-12-09T14:20:30.692Z,99034.53
2017-12-09T14:22:56.993Z,99035.56
2017-12-09T14:25:24.022Z,99027.11
2017-12-09T14:27:50.305Z,99006.92
2017-12-09T14:30:17.830Z,99057.36
2017-12-09T14:32:44.911Z,99060.44
2017-12-09T14:35:11.242Z,99059.70
2017-12-09T14:37:37.559Z,99078.97
2017-12-09T14:40:04.672Z,99066.63
2017-12-09T14:42:38.202Z,99066.25
2017-12-09T14:45:05.420Z,99069.91
2017-12-09T14:47:31.834Z,99080.44
2017-12-09T14:49:58.144Z,99025.13
2017-12-09T14:52:24.547Z,99069.14
2017-12-09T14:54:51.658Z,99072.61
2017-12-09T14:57:17.969Z,99076.48
2017-12-09T14:59:44.347Z,99089.04
2017-12-09T15:02:10.646Z,99086.44
2017-12-09T15:04:37.661Z,99094.66
2017-12-09T15:07:19.275Z,99091.54
2017-12-09T15:09:45.688Z,99095.81
2017-12-09T15:12:11.979Z,99094.17
2017-12-09T15:14:38.323Z,99108.56
2017-12-09T15:17:05.359Z,99109.94
2017-12-09T15:19:32.480Z,99116.27
2017-12-09T15:21:58.803Z,99105.67
2017-12-09T15:24:25.210Z,99090.82
2017-12-09T15:26:51.643Z,99094.69
2017-12-09T15:29:17.966Z,99113.01
2017-12-09T15:31:44.366Z,99118.43
2017-12-09T15:34:10.695Z,99109.33
2017-12-09T15:36:37.714Z,99127.75
2017-12-09T15:39:04.002Z,99112.02
2017-12-09T15:41:30.347Z,99120.97
2017-12-09T15:43:56.682Z,99123.45
2017-12-09T15:46:22.996Z,99112.23
2017-12-09T15:48:49.316Z,99100.61
2017-12-09T15:51:16.343Z,99096.51
2017-12-09T15:53:42.667Z,99111.85
2017-12-09T15:56:09.018Z,99114.55
2017-12-09T15:58:36.088Z,99104.66
2017-12-09T16:01:02.583Z,99107.61
2017-12-09T16:03:28.939Z,99105.46
2017-12-09T16:05:55.965Z,99107.97
2017-12-09T16:08:22.293Z,99114.08
2017-12-09T16:10:48.640Z,99116.20
2017-12-09T16:13:15.749Z,99130.53
2017-12-09T16:15:46.136Z,99114.34
2017-12-09T16:18:12.473Z,99126.05
2017-12-09T16:20:38.816Z,99123.05
2017-12-09T16:23:05.150Z,99131.73
2017-12-09T16:25:31.487Z,99151.66
2017-12-09T16:27:57.861Z,99136.27
2017-12-09T16:30:24.203Z,99128.88
2017-12-09T16:32:50.574Z,99123.50
2017-12-09T16:35:16.980Z,99135.31
2017-12-09T16:37:44.035Z,99140.06
2017-12-09T16:40:10.361Z,99139.36
2017-12-09T16:42:37.401Z,99131.08
2017-12-09T16:45:04.599Z,99136.23
2017-12-09T16:47:30.881Z,99166.03
2017-12-09T16:49:57.207Z,99138.73
2017-12-09T16:52:23.545Z,99138.69
2017-12-09T16:54:50.592Z,99146.02
2017-12-09T16:57:17.790Z,99141.78
2017-12-09T16:59:44.102Z,99138.67
2017-12-09T17:02:10.408Z,99142.03
2017-12-09T17:04:37.444Z,99144.29
2017-12-09T17:07:04.606Z,99133.61
2017-12-09T17:09:31.651Z,99148.16
2017-12-09T17:11:58.747Z,99146.97
2017-12-09T17:14:25.823Z,99145.29
2017-12-09T17:16:52.157Z,99159.34
2017-12-09T17:19:19.321Z,99135.24
2017-12-09T17:21:45.648Z,99126.94
2017-12-09T17:24:11.997Z,99131.61
2017-12-09T17:26:39.082Z,99149.34
2017-12-09T17:29:05.365Z,99152.59
2017-12-09T17:31:31.753Z,99146.94
2017-12-09T17:33:58.157Z,99153.64
2017-12-09T17:36:24.546Z,99154.37
2017-12-09T17:38:50.882Z,99146.14
2017-12-09T17:41:17.215Z,99159.93
2017-12-09T17:43:44.099Z,99149.11
2017-12-09T17:46:10.469Z,99162.47
2017-12-09T17:48:36.795Z,99167.56
2017-12-09T17:51:03.277Z,99134.29
2017-12-09T17:53:30.406Z,99183.98
2017-12-09T17:56:10.814Z,99179.84
2017-12-09T17:58:37.338Z,99188.91
2017-12-09T18:01:03.716Z,99176.79
2017-12-09T18:03:30.142Z,99178.81
2017-12-09T18:05:56.416Z,99179.68
2017-12-09T18:08:22.717Z,99178.58
2017-12-09T18:12:37.612Z,99172.28
2017-12-09T18:15:04.041Z,99173.41
2017-12-09T18:17:30.448Z,99161.59
2017-12-09T18:19:56.757Z,99163.73
2017-12-09T18:22:23.169Z,99163.03
2017-12-09T18:24:49.513Z,99170.19
2017-12-09T18:27:15.991Z,99156.19
2017-12-09T18:29:42.435Z,99168.23
2017-12-09T18:32:08.815Z,99159.23
2017-12-09T18:34:35.151Z,99127.39
2017-12-09T18:37:01.516Z,99173.78
2017-12-09T18:39:28.879Z,99150.42
2017-12-09T18:41:55.164Z,99157.52
2017-12-09T18:44:21.481Z,99151.09
2017-12-09T18:46:48.000Z,99161.03
2017-12-09T18:49:15.092Z,99140.15
2017-12-09T18:51:41.518Z,99156.74
2017-12-09T18:54:07.886Z,99150.91
2017-12-09T18:56:34.243Z,99158.14
2017-12-09T18:59:00.638Z,99144.28
2017-12-09T19:01:27.013Z,99148.09
2017-12-09T19:03:54.067Z,99144.34
2017-12-09T19:06:21.138Z,99153.60
2017-12-09T19:08:47.508Z,99152.45
2017-12-09T19:11:14.040Z,99131.74
2017-12-09T19:13:40.373Z,99132.55
2017-12-09T19:16:06.641Z,99144.52
2017-12-09T19:18:33.963Z,99148.63
2017-12-09T19:21:00.273Z,99130.17
2017-12-09T19:23:26.686Z,99138.64
2017-12-09T19:25:53.043Z,99151.31
2017-12-09T19:28:19.388Z,99150.94
2017-12-09T19:30:45.719Z,99139.80
2017-12-09T19:33:12.037Z,99150.45
2017-12-09T19:35:38.383Z,99161.92
2017-12-09T19:38:04.722Z,99157.19
2017-12-09T19:40:31.288Z,99146.92
2017-12-09T19:42:58.321Z,99168.19
2017-12-09T19:45:24.697Z,99154.43
2017-12-09T19:47:51.009Z,99163.40
2017-12-09T19:50:18.243Z,99157.19
2017-12-09T19:52:44.504Z,99200.13
2017-12-09T19:55:10.752Z,99177.19
2017-12-09T19:57:37.038Z,99175.12
2017-12-09T20:00:04.075Z,99182.36
2017-12-09T20:02:31.111Z,99172.52
2017-12-09T20:04:57.506Z,99169.59
2017-12-09T20:07:23.755Z,99184.39
2017-12-09T20:09:50.222Z,99183.55
2017-12-09T20:12:16.501Z,99184.23
2017-12-09T20:14:42.759Z,99186.39
2017-12-09T20:17:09.053Z,99188.40
2017-12-09T20:19:35.393Z,99189.33
2017-12-09T20:22:01.667Z,99195.41
2017-12-09T20:24:27.973Z,99185.81
2017-12-09T20:26:54.337Z,99197.66
2017-12-09T20:29:20.659Z,99193.91
2017-12-09T20:31:47.085Z,99196.48
2017-12-09T20:34:13.458Z,99190.87
2017-12-09T20:36:39.725Z,99194.55
2017-12-09T20:39:06.105Z,99189.94
2017-12-09T20:41:43.641Z,99195.73
2017-12-09T20:44:09.977Z,99193.54
2017-12-09T20:46:36.316Z,99195.86
2017-12-09T20:49:02.657Z,99199.63
2017-12-09T20:51:29.117Z,99194.91
2017-12-09T20:53:56.524Z,99192.18
2017-12-09T20:56:23.005Z,99185.41
2017-12-09T20:58:49.411Z,99178.15
2017-12-09T21:01:15.680Z,99186.31
2017-12-09T21:03:42.740Z,99182.83
2017-12-09T21:06:09.802Z,99187.58
2017-12-09T21:08:36.226Z,99191.95
2017-12-09T21:11:02.566Z,99167.67
2017-12-09T21:13:28.872Z,99187.55
2017-12-09T21:15:55.913Z,99181.22
2017-12-09T21:18:23.000Z,99182.13
2017-12-09T21:20:49.370Z,99181.78
2017-12-09T21:23:15.832Z,99171.77
2017-12-09T21:25:42.871Z,99171.41
2017-12-09T21:28:09.918Z,99170.05
2017-12-09T21:30:36.261Z,99183.42
2017-12-09T21:33:03.403Z,99176.27
2017-12-09T21:35:30.431Z,99175.08
2017-12-09T21:37:56.790Z,99171.97
2017-12-09T21:40:23.871Z,99177.27
2017-12-09T21:42:50.247Z,99163.80
2017-12-09T21:45:16.576Z,99165.88
2017-12-09T21:50:22.342Z,99166.03
2017-12-09T21:52:48.738Z,99156.39
2017-12-09T21:55:15.074Z,99155.20
2017-12-09T21:57:41.437Z,99155.28
2017-12-09T22:00:08.734Z,99157.17
2017-12-09T22:02:35.805Z,99158.04
2017-12-09T22:05:02.145Z,99158.67
2017-12-09T22:07:28.445Z,99159.96
2017-12-09T22:09:55.517Z,99153.19
2017-12-09T22:12:21.882Z,99157.23
2017-12-09T22:14:48.234Z,99136.84
2017-12-09T22:17:15.321Z,99149.86
2017-12-09T22:19:41.631Z,99142.39
2017-12-09T22:22:08.671Z,99136.11
2017-12-09T22:24:35.791Z,99141.17
2017-12-09T22:27:02.071Z,99135.48
2017-12-09T22:29:28.409Z,99144.10
2017-12-09T22:31:54.684Z,99128.19
2017-12-09T22:34:21.031Z,99119.88
2017-12-09T22:36:47.389Z,99137.81
2017-12-09T22:39:13.780Z,99143.30
2017-12-09T22:41:40.274Z,99146.65
2017-12-09T22:44:06.576Z,99145.81
2017-12-09T22:46:33.638Z,99153.18
2017-12-09T22:48:59.932Z,99150.21
2017-12-09T22:51:26.304Z,99146.76
2017-12-09T22:53:52.688Z,99154.66
2017-12-09T22:56:19.058Z,99137.48
2017-12-09T22:58:45.410Z,99150.43
2017-12-09T23:01:11.765Z,99158.66
2017-12-09T23:03:38.128Z,99154.55
2017-12-09T23:06:04.449Z,99150.81
2017-12-09T23:08:30.780Z,99144.88
2017-12-09T23:10:57.120Z,99135.03
2017-12-09T23:13:23.441Z,99144.48
2017-12-09T23:15:49.773Z,99147.73
2017-12-09T23:18:16.107Z,99145.64
2017-12-09T23:20:42.411Z,99144.38
2017-12-09T23:23:08.729Z,99146.20
2017-12-09T23:25:35.201Z,99143.97
2017-12-09T23:28:01.570Z,99136.53
2017-12-09T23:30:28.649Z,99138.88
2017-12-09T23:32:55.005Z,99147.80
2017-12-09T23:35:21.337Z,99137.13
2017-12-09T23:37:47.649Z,99139.42
2017-12-09T23:40:14.076Z,99126.06
2017-12-09T23:42:40.385Z,99130.38
2017-12-09T23:45:06.695Z,99133.55
2017-12-09T23:47:33.024Z,99129.99
2017-12-09T23:49:59.335Z,99134.11
2017-12-09T23:52:25.708Z,99140.98
2017-12-09T23:54:52.827Z,99139.03
2017-12-09T23:57:19.146Z,99129.92
2017-12-09T23:59:45.502Z,99144.88
